Terminal Aerodrome Forecast
Issued by NWS Grand Rapids, MI

Home | Current Version | Previous Version | Text Only | Print | Product List | Glossary On
Versions: 1 2 3 4 5 6 7 8 9 10 11 12 13 14 15 16 17 18 19 20 21 22 23 24 25 26 27
915
FTUS43 KGRR 262340
TAFGRR
TAF
KGRR 262340Z 2700/2724 17004KT 4SM -SHRA BR OVC012
      TEMPO 2701/2703 OVC008
     FM270300 22004KT 1SM -SHRA BR OVC003
     FM271200 25006KT 1SM BR OVC005
     FM271500 25006KT 4SM BR OVC005
     FM271800 28006KT P6SM OVC020
     FM272300 30006KT P6SM -SHRA OVC025=

USA.gov is the U.S. government's official web portal to all federal, state and local government web resources and services.